sensor_id;sensor_type;location;lat;lon;timestamp;P1;durP1;ratioP1;P2;durP2;ratioP2
66118;SDS011;52912;48.564;9.302;2022-08-11T00:00:31;3.70;;;1.90;;
66118;SDS011;52912;48.564;9.302;2022-08-11T00:03:02;2.80;;;2.03;;
66118;SDS011;52912;48.564;9.302;2022-08-11T00:05:29;4.07;;;2.13;;
66118;SDS011;52912;48.564;9.302;2022-08-11T00:07:55;5.20;;;1.80;;
66118;SDS011;52912;48.564;9.302;2022-08-11T00:10:23;4.53;;;2.00;;
66118;SDS011;52912;48.564;9.302;2022-08-11T00:12:54;4.25;;;2.10;;
66118;SDS011;52912;48.564;9.302;2022-08-11T00:15:20;4.57;;;1.98;;
66118;SDS011;52912;48.564;9.302;2022-08-11T00:17:47;5.05;;;1.90;;
66118;SDS011;52912;48.564;9.302;2022-08-11T00:20:14;8.18;;;1.85;;
66118;SDS011;52912;48.564;9.302;2022-08-11T00:22:41;3.97;;;2.00;;
66118;SDS011;52912;48.564;9.302;2022-08-11T00:25:09;3.47;;;2.03;;
66118;SDS011;52912;48.564;9.302;2022-08-11T00:27:37;2.80;;;2.03;;
66118;SDS011;52912;48.564;9.302;2022-08-11T00:30:06;2.50;;;1.85;;
66118;SDS011;52912;48.564;9.302;2022-08-11T00:32:32;6.57;;;1.80;;
66118;SDS011;52912;48.564;9.302;2022-08-11T00:34:59;3.17;;;1.80;;
66118;SDS011;52912;48.564;9.302;2022-08-11T00:37:26;4.93;;;1.98;;
66118;SDS011;52912;48.564;9.302;2022-08-11T00:39:53;2.22;;;1.70;;
66118;SDS011;52912;48.564;9.302;2022-08-11T00:42:23;4.47;;;2.53;;
66118;SDS011;52912;48.564;9.302;2022-08-11T00:45:00;3.85;;;2.20;;
66118;SDS011;52912;48.564;9.302;2022-08-11T00:47:40;2.90;;;1.93;;
66118;SDS011;52912;48.564;9.302;2022-08-11T00:50:17;6.07;;;2.00;;
66118;SDS011;52912;48.564;9.302;2022-08-11T01:01:51;3.03;;;1.90;;
66118;SDS011;52912;48.564;9.302;2022-08-11T01:07:31;3.75;;;1.92;;
66118;SDS011;52912;48.564;9.302;2022-08-11T01:10:22;4.50;;;1.90;;
66118;SDS011;52912;48.564;9.302;2022-08-11T01:13:31;2.88;;;1.70;;
66118;SDS011;52912;48.564;9.302;2022-08-11T01:18:50;7.18;;;1.90;;
66118;SDS011;52912;48.564;9.302;2022-08-11T01:24:46;2.33;;;1.83;;
66118;SDS011;52912;48.564;9.302;2022-08-11T01:30:47;4.28;;;2.40;;
66118;SDS011;52912;48.564;9.302;2022-08-11T01:33:53;3.22;;;2.03;;
66118;SDS011;52912;48.564;9.302;2022-08-11T01:36:51;4.53;;;2.10;;
66118;SDS011;52912;48.564;9.302;2022-08-11T01:45:39;6.63;;;2.40;;
66118;SDS011;52912;48.564;9.302;2022-08-11T01:48:13;5.03;;;2.28;;
66118;SDS011;52912;48.564;9.302;2022-08-11T01:50:56;3.10;;;2.00;;
66118;SDS011;52912;48.564;9.302;2022-08-11T01:53:33;3.55;;;2.10;;
66118;SDS011;52912;48.564;9.302;2022-08-11T01:56:12;3.20;;;2.15;;
66118;SDS011;52912;48.564;9.302;2022-08-11T01:58:49;3.90;;;2.10;;
66118;SDS011;52912;48.564;9.302;2022-08-11T02:01:31;3.30;;;2.10;;
66118;SDS011;52912;48.564;9.302;2022-08-11T02:04:08;4.07;;;2.10;;
66118;SDS011;52912;48.564;9.302;2022-08-11T02:06:47;4.43;;;2.10;;
66118;SDS011;52912;48.564;9.302;2022-08-11T02:09:19;2.85;;;2.00;;
66118;SDS011;52912;48.564;9.302;2022-08-11T02:11:54;4.20;;;2.13;;
66118;SDS011;52912;48.564;9.302;2022-08-11T02:14:25;4.18;;;2.17;;
66118;SDS011;52912;48.564;9.302;2022-08-11T02:17:04;3.38;;;2.22;;
66118;SDS011;52912;48.564;9.302;2022-08-11T02:19:41;3.55;;;2.20;;
66118;SDS011;52912;48.564;9.302;2022-08-11T02:22:14;3.00;;;2.15;;
66118;SDS011;52912;48.564;9.302;2022-08-11T02:24:47;4.00;;;2.30;;
66118;SDS011;52912;48.564;9.302;2022-08-11T02:27:19;5.60;;;2.40;;
66118;SDS011;52912;48.564;9.302;2022-08-11T02:29:50;4.07;;;2.35;;
66118;SDS011;52912;48.564;9.302;2022-08-11T02:32:20;3.83;;;2.60;;
66118;SDS011;52912;48.564;9.302;2022-08-11T02:34:51;3.70;;;2.17;;
66118;SDS011;52912;48.564;9.302;2022-08-11T02:37:24;2.90;;;2.05;;
66118;SDS011;52912;48.564;9.302;2022-08-11T02:40:08;2.78;;;2.28;;
66118;SDS011;52912;48.564;9.302;2022-08-11T02:42:41;3.25;;;2.20;;
66118;SDS011;52912;48.564;9.302;2022-08-11T02:45:28;4.25;;;2.30;;
66118;SDS011;52912;48.564;9.302;2022-08-11T02:48:12;3.88;;;2.60;;
66118;SDS011;52912;48.564;9.302;2022-08-11T02:50:51;3.67;;;2.20;;
66118;SDS011;52912;48.564;9.302;2022-08-11T02:53:25;3.92;;;2.10;;
66118;SDS011;52912;48.564;9.302;2022-08-11T02:56:00;4.65;;;2.30;;
66118;SDS011;52912;48.564;9.302;2022-08-11T02:58:33;3.03;;;2.15;;
66118;SDS011;52912;48.564;9.302;2022-08-11T03:01:09;3.22;;;2.40;;
66118;SDS011;52912;48.564;9.302;2022-08-11T03:03:43;3.65;;;2.20;;
66118;SDS011;52912;48.564;9.302;2022-08-11T03:06:18;5.45;;;2.22;;
66118;SDS011;52912;48.564;9.302;2022-08-11T03:08:59;3.25;;;2.08;;
66118;SDS011;52912;48.564;9.302;2022-08-11T03:11:41;6.03;;;2.17;;
66118;SDS011;52912;48.564;9.302;2022-08-11T03:14:15;5.97;;;2.40;;
66118;SDS011;52912;48.564;9.302;2022-08-11T03:16:50;5.60;;;2.47;;
66118;SDS011;52912;48.564;9.302;2022-08-11T03:19:21;5.70;;;2.70;;
66118;SDS011;52912;48.564;9.302;2022-08-11T03:21:59;3.80;;;2.50;;
66118;SDS011;52912;48.564;9.302;2022-08-11T03:27:26;5.97;;;2.50;;
66118;SDS011;52912;48.564;9.302;2022-08-11T03:30:01;2.67;;;2.30;;
66118;SDS011;52912;48.564;9.302;2022-08-11T03:32:33;4.63;;;2.30;;
66118;SDS011;52912;48.564;9.302;2022-08-11T03:35:05;5.65;;;2.58;;
66118;SDS011;52912;48.564;9.302;2022-08-11T03:37:44;5.43;;;2.20;;
66118;SDS011;52912;48.564;9.302;2022-08-11T03:40:17;3.55;;;2.53;;
66118;SDS011;52912;48.564;9.302;2022-08-11T03:42:56;5.40;;;2.55;;
66118;SDS011;52912;48.564;9.302;2022-08-11T03:45:27;6.25;;;2.40;;
66118;SDS011;52912;48.564;9.302;2022-08-11T03:48:02;8.50;;;2.60;;
66118;SDS011;52912;48.564;9.302;2022-08-11T03:50:46;5.18;;;2.47;;
66118;SDS011;52912;48.564;9.302;2022-08-11T03:53:31;3.38;;;2.35;;
66118;SDS011;52912;48.564;9.302;2022-08-11T03:56:18;3.28;;;2.38;;
66118;SDS011;52912;48.564;9.302;2022-08-11T03:59:26;4.53;;;2.40;;
66118;SDS011;52912;48.564;9.302;2022-08-11T04:02:08;4.53;;;2.42;;
66118;SDS011;52912;48.564;9.302;2022-08-11T04:10:43;3.05;;;2.30;;
66118;SDS011;52912;48.564;9.302;2022-08-11T04:13:56;5.95;;;2.85;;
66118;SDS011;52912;48.564;9.302;2022-08-11T04:17:01;3.13;;;2.40;;
66118;SDS011;52912;48.564;9.302;2022-08-11T04:19:51;6.05;;;2.58;;
66118;SDS011;52912;48.564;9.302;2022-08-11T04:25:42;8.52;;;2.45;;
66118;SDS011;52912;48.564;9.302;2022-08-11T04:28:39;5.43;;;2.55;;
66118;SDS011;52912;48.564;9.302;2022-08-11T04:31:20;6.90;;;2.67;;
66118;SDS011;52912;48.564;9.302;2022-08-11T04:37:07;7.82;;;3.00;;
66118;SDS011;52912;48.564;9.302;2022-08-11T04:39:41;4.65;;;2.90;;
66118;SDS011;52912;48.564;9.302;2022-08-11T04:42:28;5.03;;;2.40;;
66118;SDS011;52912;48.564;9.302;2022-08-11T04:45:45;5.72;;;2.47;;
66118;SDS011;52912;48.564;9.302;2022-08-11T04:48:33;5.78;;;2.38;;
66118;SDS011;52912;48.564;9.302;2022-08-11T04:51:21;5.40;;;2.58;;
66118;SDS011;52912;48.564;9.302;2022-08-11T04:54:04;4.82;;;2.67;;
66118;SDS011;52912;48.564;9.302;2022-08-11T04:56:45;5.20;;;2.83;;
66118;SDS011;52912;48.564;9.302;2022-08-11T04:59:17;8.52;;;3.15;;
66118;SDS011;52912;48.564;9.302;2022-08-11T05:02:05;4.93;;;2.53;;
66118;SDS011;52912;48.564;9.302;2022-08-11T05:04:58;5.05;;;2.80;;
66118;SDS011;52912;48.564;9.302;2022-08-11T05:07:50;8.48;;;3.15;;
66118;SDS011;52912;48.564;9.302;2022-08-11T05:10:44;6.32;;;2.80;;
66118;SDS011;52912;48.564;9.302;2022-08-11T05:13:22;5.70;;;2.97;;
66118;SDS011;52912;48.564;9.302;2022-08-11T05:15:53;4.85;;;2.60;;
66118;SDS011;52912;48.564;9.302;2022-08-11T05:18:21;5.45;;;2.75;;
66118;SDS011;52912;48.564;9.302;2022-08-11T05:20:49;7.28;;;2.55;;
66118;SDS011;52912;48.564;9.302;2022-08-11T05:23:16;5.25;;;2.33;;
66118;SDS011;52912;48.564;9.302;2022-08-11T05:25:46;4.10;;;2.50;;
66118;SDS011;52912;48.564;9.302;2022-08-11T05:28:27;5.63;;;2.80;;
66118;SDS011;52912;48.564;9.302;2022-08-11T05:30:57;7.22;;;2.72;;
66118;SDS011;52912;48.564;9.302;2022-08-11T05:33:29;4.78;;;2.65;;
66118;SDS011;52912;48.564;9.302;2022-08-11T05:36:01;7.28;;;2.90;;
66118;SDS011;52912;48.564;9.302;2022-08-11T05:38:35;4.15;;;3.00;;
66118;SDS011;52912;48.564;9.302;2022-08-11T05:41:02;6.10;;;2.72;;
66118;SDS011;52912;48.564;9.302;2022-08-11T05:43:29;3.87;;;2.60;;
66118;SDS011;52912;48.564;9.302;2022-08-11T05:45:57;5.95;;;2.75;;
66118;SDS011;52912;48.564;9.302;2022-08-11T05:48:28;9.07;;;3.00;;
66118;SDS011;52912;48.564;9.302;2022-08-11T05:50:58;7.53;;;2.85;;
66118;SDS011;52912;48.564;9.302;2022-08-11T05:55:51;7.47;;;2.92;;
66118;SDS011;52912;48.564;9.302;2022-08-11T05:58:18;5.78;;;2.67;;
66118;SDS011;52912;48.564;9.302;2022-08-11T06:00:45;5.35;;;2.80;;
66118;SDS011;52912;48.564;9.302;2022-08-11T06:03:11;5.07;;;2.90;;
66118;SDS011;52912;48.564;9.302;2022-08-11T06:05:46;5.38;;;2.95;;
66118;SDS011;52912;48.564;9.302;2022-08-11T06:08:12;5.32;;;2.63;;
66118;SDS011;52912;48.564;9.302;2022-08-11T06:10:39;6.60;;;3.00;;
66118;SDS011;52912;48.564;9.302;2022-08-11T06:13:07;5.43;;;2.97;;
66118;SDS011;52912;48.564;9.302;2022-08-11T06:15:42;5.93;;;2.80;;
66118;SDS011;52912;48.564;9.302;2022-08-11T06:18:09;6.43;;;2.85;;
66118;SDS011;52912;48.564;9.302;2022-08-11T06:20:42;4.90;;;2.88;;
66118;SDS011;52912;48.564;9.302;2022-08-11T06:23:11;8.85;;;3.15;;
66118;SDS011;52912;48.564;9.302;2022-08-11T06:25:37;7.38;;;3.08;;
66118;SDS011;52912;48.564;9.302;2022-08-11T06:28:03;6.18;;;2.85;;
66118;SDS011;52912;48.564;9.302;2022-08-11T06:30:32;4.60;;;2.85;;
66118;SDS011;52912;48.564;9.302;2022-08-11T06:33:00;5.03;;;2.70;;
66118;SDS011;52912;48.564;9.302;2022-08-11T06:35:28;4.57;;;2.70;;
66118;SDS011;52912;48.564;9.302;2022-08-11T06:38:07;5.07;;;2.97;;
66118;SDS011;52912;48.564;9.302;2022-08-11T06:40:41;3.67;;;2.70;;
66118;SDS011;52912;48.564;9.302;2022-08-11T06:43:14;4.05;;;2.67;;
66118;SDS011;52912;48.564;9.302;2022-08-11T06:45:47;5.18;;;2.83;;
66118;SDS011;52912;48.564;9.302;2022-08-11T06:48:18;8.20;;;3.08;;
66118;SDS011;52912;48.564;9.302;2022-08-11T06:50:47;4.55;;;3.03;;
66118;SDS011;52912;48.564;9.302;2022-08-11T06:53:17;5.82;;;2.95;;
66118;SDS011;52912;48.564;9.302;2022-08-11T06:55:44;5.55;;;2.80;;
66118;SDS011;52912;48.564;9.302;2022-08-11T06:58:12;8.52;;;3.10;;
66118;SDS011;52912;48.564;9.302;2022-08-11T07:00:40;7.43;;;3.13;;
66118;SDS011;52912;48.564;9.302;2022-08-11T07:03:07;6.82;;;3.30;;
66118;SDS011;52912;48.564;9.302;2022-08-11T07:08:29;5.53;;;2.80;;
66118;SDS011;52912;48.564;9.302;2022-08-11T07:11:13;8.52;;;3.20;;
66118;SDS011;52912;48.564;9.302;2022-08-11T07:14:02;6.17;;;3.10;;
66118;SDS011;52912;48.564;9.302;2022-08-11T07:16:29;5.75;;;2.65;;
66118;SDS011;52912;48.564;9.302;2022-08-11T07:18:59;6.65;;;2.60;;
66118;SDS011;52912;48.564;9.302;2022-08-11T07:21:28;6.65;;;3.00;;
66118;SDS011;52912;48.564;9.302;2022-08-11T07:23:55;6.03;;;3.00;;
66118;SDS011;52912;48.564;9.302;2022-08-11T07:28:50;7.95;;;2.72;;
66118;SDS011;52912;48.564;9.302;2022-08-11T07:31:18;7.40;;;2.72;;
66118;SDS011;52912;48.564;9.302;2022-08-11T07:33:48;6.25;;;3.10;;
66118;SDS011;52912;48.564;9.302;2022-08-11T07:36:16;5.40;;;3.17;;
66118;SDS011;52912;48.564;9.302;2022-08-11T07:38:46;9.82;;;3.30;;
66118;SDS011;52912;48.564;9.302;2022-08-11T07:41:14;4.60;;;2.67;;
66118;SDS011;52912;48.564;9.302;2022-08-11T07:43:42;6.05;;;3.03;;
66118;SDS011;52912;48.564;9.302;2022-08-11T07:46:10;5.78;;;2.65;;
66118;SDS011;52912;48.564;9.302;2022-08-11T07:48:36;4.15;;;2.80;;
66118;SDS011;52912;48.564;9.302;2022-08-11T07:51:06;4.55;;;2.75;;
66118;SDS011;52912;48.564;9.302;2022-08-11T07:53:32;7.93;;;2.70;;
66118;SDS011;52912;48.564;9.302;2022-08-11T07:56:00;8.43;;;2.60;;
66118;SDS011;52912;48.564;9.302;2022-08-11T07:58:26;4.60;;;3.00;;
66118;SDS011;52912;48.564;9.302;2022-08-11T08:00:54;7.60;;;2.58;;
66118;SDS011;52912;48.564;9.302;2022-08-11T08:03:21;3.97;;;2.90;;
66118;SDS011;52912;48.564;9.302;2022-08-11T08:05:48;7.35;;;3.00;;
66118;SDS011;52912;48.564;9.302;2022-08-11T08:08:15;3.88;;;2.80;;
66118;SDS011;52912;48.564;9.302;2022-08-11T08:10:41;5.22;;;2.60;;
66118;SDS011;52912;48.564;9.302;2022-08-11T08:13:09;5.03;;;2.80;;
66118;SDS011;52912;48.564;9.302;2022-08-11T08:15:34;4.28;;;2.63;;
66118;SDS011;52912;48.564;9.302;2022-08-11T08:18:02;4.72;;;2.70;;
66118;SDS011;52912;48.564;9.302;2022-08-11T08:20:29;7.35;;;2.88;;
66118;SDS011;52912;48.564;9.302;2022-08-11T08:22:58;5.30;;;2.60;;
66118;SDS011;52912;48.564;9.302;2022-08-11T08:25:25;9.25;;;2.90;;
66118;SDS011;52912;48.564;9.302;2022-08-11T08:27:53;5.68;;;2.53;;
66118;SDS011;52912;48.564;9.302;2022-08-11T08:30:21;6.03;;;2.40;;
66118;SDS011;52912;48.564;9.302;2022-08-11T08:32:48;3.38;;;2.28;;
66118;SDS011;52912;48.564;9.302;2022-08-11T08:35:15;4.03;;;2.30;;
66118;SDS011;52912;48.564;9.302;2022-08-11T08:37:41;4.13;;;2.33;;
66118;SDS011;52912;48.564;9.302;2022-08-11T08:40:08;4.95;;;2.63;;
66118;SDS011;52912;48.564;9.302;2022-08-11T08:42:36;2.75;;;1.95;;
66118;SDS011;52912;48.564;9.302;2022-08-11T08:45:06;3.25;;;2.40;;
66118;SDS011;52912;48.564;9.302;2022-08-11T08:47:36;4.78;;;2.15;;
66118;SDS011;52912;48.564;9.302;2022-08-11T08:50:08;3.42;;;2.10;;
66118;SDS011;52912;48.564;9.302;2022-08-11T08:52:36;5.00;;;2.33;;
66118;SDS011;52912;48.564;9.302;2022-08-11T08:55:04;3.40;;;2.17;;
66118;SDS011;52912;48.564;9.302;2022-08-11T08:57:31;5.13;;;2.38;;
66118;SDS011;52912;48.564;9.302;2022-08-11T08:59:59;6.28;;;2.30;;
66118;SDS011;52912;48.564;9.302;2022-08-11T09:02:26;4.00;;;2.13;;
66118;SDS011;52912;48.564;9.302;2022-08-11T09:04:54;3.88;;;2.08;;
66118;SDS011;52912;48.564;9.302;2022-08-11T09:07:21;9.20;;;2.40;;
66118;SDS011;52912;48.564;9.302;2022-08-11T09:09:49;5.18;;;2.25;;
66118;SDS011;52912;48.564;9.302;2022-08-11T09:12:17;3.85;;;2.30;;
66118;SDS011;52912;48.564;9.302;2022-08-11T09:14:45;2.83;;;2.10;;
66118;SDS011;52912;48.564;9.302;2022-08-11T09:17:13;5.35;;;2.33;;
66118;SDS011;52912;48.564;9.302;2022-08-11T09:19:41;4.17;;;2.30;;
66118;SDS011;52912;48.564;9.302;2022-08-11T09:22:08;4.95;;;2.67;;
66118;SDS011;52912;48.564;9.302;2022-08-11T09:24:37;4.32;;;2.25;;
66118;SDS011;52912;48.564;9.302;2022-08-11T09:27:05;3.53;;;2.25;;
66118;SDS011;52912;48.564;9.302;2022-08-11T09:29:31;3.40;;;2.33;;
66118;SDS011;52912;48.564;9.302;2022-08-11T09:31:57;4.25;;;2.40;;
66118;SDS011;52912;48.564;9.302;2022-08-11T09:34:24;3.00;;;2.20;;
66118;SDS011;52912;48.564;9.302;2022-08-11T09:36:50;6.35;;;2.15;;
66118;SDS011;52912;48.564;9.302;2022-08-11T09:39:18;4.85;;;1.98;;
66118;SDS011;52912;48.564;9.302;2022-08-11T09:41:44;3.67;;;1.90;;
66118;SDS011;52912;48.564;9.302;2022-08-11T09:44:11;5.53;;;2.17;;
66118;SDS011;52912;48.564;9.302;2022-08-11T09:46:37;5.88;;;1.98;;
66118;SDS011;52912;48.564;9.302;2022-08-11T09:49:03;3.85;;;1.95;;
66118;SDS011;52912;48.564;9.302;2022-08-11T09:51:30;4.40;;;1.92;;
66118;SDS011;52912;48.564;9.302;2022-08-11T09:53:58;5.43;;;2.20;;
66118;SDS011;52912;48.564;9.302;2022-08-11T09:56:27;3.13;;;2.00;;
66118;SDS011;52912;48.564;9.302;2022-08-11T09:58:53;6.03;;;2.10;;
66118;SDS011;52912;48.564;9.302;2022-08-11T10:01:20;4.88;;;2.20;;
66118;SDS011;52912;48.564;9.302;2022-08-11T10:03:49;3.83;;;1.75;;
66118;SDS011;52912;48.564;9.302;2022-08-11T10:06:16;8.00;;;1.77;;
66118;SDS011;52912;48.564;9.302;2022-08-11T10:08:42;2.97;;;1.88;;
66118;SDS011;52912;48.564;9.302;2022-08-11T10:11:09;4.18;;;1.90;;
66118;SDS011;52912;48.564;9.302;2022-08-11T10:13:40;4.57;;;2.00;;
66118;SDS011;52912;48.564;9.302;2022-08-11T10:16:07;3.30;;;1.88;;
66118;SDS011;52912;48.564;9.302;2022-08-11T10:18:35;3.95;;;1.90;;
66118;SDS011;52912;48.564;9.302;2022-08-11T10:21:06;2.40;;;1.73;;
66118;SDS011;52912;48.564;9.302;2022-08-11T10:23:35;1.40;;;1.30;;
66118;SDS011;52912;48.564;9.302;2022-08-11T10:26:02;5.60;;;2.00;;
66118;SDS011;52912;48.564;9.302;2022-08-11T10:28:29;4.57;;;1.85;;
66118;SDS011;52912;48.564;9.302;2022-08-11T10:30:58;2.55;;;1.80;;
66118;SDS011;52912;48.564;9.302;2022-08-11T10:33:24;3.95;;;2.03;;
66118;SDS011;52912;48.564;9.302;2022-08-11T10:35:49;2.05;;;1.55;;
66118;SDS011;52912;48.564;9.302;2022-08-11T10:38:16;5.55;;;1.70;;
66118;SDS011;52912;48.564;9.302;2022-08-11T10:40:44;2.45;;;1.70;;
66118;SDS011;52912;48.564;9.302;2022-08-11T10:43:10;4.22;;;1.70;;
66118;SDS011;52912;48.564;9.302;2022-08-11T10:45:37;8.02;;;2.00;;
66118;SDS011;52912;48.564;9.302;2022-08-11T10:50:33;3.47;;;1.95;;
66118;SDS011;52912;48.564;9.302;2022-08-11T10:52:59;4.47;;;1.70;;
66118;SDS011;52912;48.564;9.302;2022-08-11T10:55:25;3.38;;;1.70;;
66118;SDS011;52912;48.564;9.302;2022-08-11T10:57:52;1.90;;;1.60;;
66118;SDS011;52912;48.564;9.302;2022-08-11T11:00:17;2.78;;;1.67;;
66118;SDS011;52912;48.564;9.302;2022-08-11T11:02:43;2.85;;;1.75;;
66118;SDS011;52912;48.564;9.302;2022-08-11T11:05:13;3.67;;;1.83;;
66118;SDS011;52912;48.564;9.302;2022-08-11T11:07:46;4.03;;;1.70;;
66118;SDS011;52912;48.564;9.302;2022-08-11T11:10:19;3.00;;;1.77;;
66118;SDS011;52912;48.564;9.302;2022-08-11T11:12:45;4.45;;;1.83;;
66118;SDS011;52912;48.564;9.302;2022-08-11T11:15:15;6.30;;;1.80;;
66118;SDS011;52912;48.564;9.302;2022-08-11T11:17:45;5.30;;;1.80;;
66118;SDS011;52912;48.564;9.302;2022-08-11T11:20:16;3.92;;;1.88;;
66118;SDS011;52912;48.564;9.302;2022-08-11T11:22:46;3.88;;;1.90;;
66118;SDS011;52912;48.564;9.302;2022-08-11T11:25:29;2.42;;;1.88;;
66118;SDS011;52912;48.564;9.302;2022-08-11T11:28:09;1.95;;;1.58;;
66118;SDS011;52912;48.564;9.302;2022-08-11T11:30:54;4.88;;;1.90;;
66118;SDS011;52912;48.564;9.302;2022-08-11T11:33:41;5.80;;;1.95;;
66118;SDS011;52912;48.564;9.302;2022-08-11T11:36:23;3.22;;;1.70;;
66118;SDS011;52912;48.564;9.302;2022-08-11T11:38:55;3.42;;;1.83;;
66118;SDS011;52912;48.564;9.302;2022-08-11T11:41:21;7.53;;;1.77;;
66118;SDS011;52912;48.564;9.302;2022-08-11T11:43:47;3.63;;;1.58;;
66118;SDS011;52912;48.564;9.302;2022-08-11T11:46:13;2.33;;;1.60;;
66118;SDS011;52912;48.564;9.302;2022-08-11T11:48:39;4.78;;;1.70;;
66118;SDS011;52912;48.564;9.302;2022-08-11T11:51:06;3.25;;;1.80;;
66118;SDS011;52912;48.564;9.302;2022-08-11T11:53:34;2.60;;;1.65;;
66118;SDS011;52912;48.564;9.302;2022-08-11T11:56:00;3.10;;;1.53;;
66118;SDS011;52912;48.564;9.302;2022-08-11T11:58:27;6.65;;;1.60;;
66118;SDS011;52912;48.564;9.302;2022-08-11T12:00:53;2.30;;;1.70;;
66118;SDS011;52912;48.564;9.302;2022-08-11T12:03:19;1.58;;;1.48;;
66118;SDS011;52912;48.564;9.302;2022-08-11T12:05:45;2.38;;;1.60;;
66118;SDS011;52912;48.564;9.302;2022-08-11T12:08:11;5.00;;;2.00;;
66118;SDS011;52912;48.564;9.302;2022-08-11T12:10:44;3.80;;;1.70;;
66118;SDS011;52912;48.564;9.302;2022-08-11T12:13:12;2.58;;;1.70;;
66118;SDS011;52912;48.564;9.302;2022-08-11T12:15:39;1.90;;;1.70;;
66118;SDS011;52912;48.564;9.302;2022-08-11T12:18:05;1.95;;;1.60;;
66118;SDS011;52912;48.564;9.302;2022-08-11T12:20:31;2.42;;;1.60;;
66118;SDS011;52912;48.564;9.302;2022-08-11T12:22:57;2.30;;;1.77;;
66118;SDS011;52912;48.564;9.302;2022-08-11T12:25:23;3.45;;;1.65;;
66118;SDS011;52912;48.564;9.302;2022-08-11T12:27:50;3.55;;;1.70;;
66118;SDS011;52912;48.564;9.302;2022-08-11T12:30:17;2.95;;;1.75;;
66118;SDS011;52912;48.564;9.302;2022-08-11T12:32:43;2.90;;;1.90;;
66118;SDS011;52912;48.564;9.302;2022-08-11T12:35:10;3.33;;;1.63;;
66118;SDS011;52912;48.564;9.302;2022-08-11T12:37:40;5.47;;;1.75;;
66118;SDS011;52912;48.564;9.302;2022-08-11T12:40:10;1.98;;;1.60;;
66118;SDS011;52912;48.564;9.302;2022-08-11T12:45:04;4.73;;;1.60;;
66118;SDS011;52912;48.564;9.302;2022-08-11T12:47:35;5.38;;;1.70;;
66118;SDS011;52912;48.564;9.302;2022-08-11T12:50:01;2.05;;;1.73;;
66118;SDS011;52912;48.564;9.302;2022-08-11T12:52:28;3.60;;;1.70;;
66118;SDS011;52912;48.564;9.302;2022-08-11T12:54:57;6.15;;;1.80;;
66118;SDS011;52912;48.564;9.302;2022-08-11T12:59:51;3.17;;;1.75;;
66118;SDS011;52912;48.564;9.302;2022-08-11T13:02:20;3.10;;;1.80;;
66118;SDS011;52912;48.564;9.302;2022-08-11T13:04:46;2.50;;;1.73;;
66118;SDS011;52912;48.564;9.302;2022-08-11T13:07:13;2.55;;;1.70;;
66118;SDS011;52912;48.564;9.302;2022-08-11T13:09:40;3.87;;;1.80;;
66118;SDS011;52912;48.564;9.302;2022-08-11T13:12:07;2.00;;;1.63;;
66118;SDS011;52912;48.564;9.302;2022-08-11T13:14:33;3.75;;;1.70;;
66118;SDS011;52912;48.564;9.302;2022-08-11T13:16:59;3.25;;;1.65;;
66118;SDS011;52912;48.564;9.302;2022-08-11T13:19:26;3.63;;;1.70;;
66118;SDS011;52912;48.564;9.302;2022-08-11T13:21:53;5.90;;;1.60;;
66118;SDS011;52912;48.564;9.302;2022-08-11T13:24:19;3.17;;;1.80;;
66118;SDS011;52912;48.564;9.302;2022-08-11T13:26:46;6.55;;;1.70;;
66118;SDS011;52912;48.564;9.302;2022-08-11T13:29:12;2.33;;;1.70;;
66118;SDS011;52912;48.564;9.302;2022-08-11T13:31:38;3.35;;;1.70;;
66118;SDS011;52912;48.564;9.302;2022-08-11T13:34:04;1.88;;;1.65;;
66118;SDS011;52912;48.564;9.302;2022-08-11T13:36:32;3.03;;;1.67;;
66118;SDS011;52912;48.564;9.302;2022-08-11T13:38:58;3.90;;;2.00;;
66118;SDS011;52912;48.564;9.302;2022-08-11T13:41:26;4.97;;;1.80;;
66118;SDS011;52912;48.564;9.302;2022-08-11T13:43:53;14.18;;;2.03;;
66118;SDS011;52912;48.564;9.302;2022-08-11T13:46:21;2.28;;;1.60;;
66118;SDS011;52912;48.564;9.302;2022-08-11T13:48:47;4.65;;;1.83;;
66118;SDS011;52912;48.564;9.302;2022-08-11T13:51:14;8.18;;;1.63;;
66118;SDS011;52912;48.564;9.302;2022-08-11T13:53:42;2.97;;;1.95;;
66118;SDS011;52912;48.564;9.302;2022-08-11T13:56:07;1.98;;;1.60;;
66118;SDS011;52912;48.564;9.302;2022-08-11T13:58:33;1.67;;;1.58;;
66118;SDS011;52912;48.564;9.302;2022-08-11T14:00:59;3.80;;;1.80;;
66118;SDS011;52912;48.564;9.302;2022-08-11T14:03:26;3.45;;;1.80;;
66118;SDS011;52912;48.564;9.302;2022-08-11T14:05:53;2.83;;;1.80;;
66118;SDS011;52912;48.564;9.302;2022-08-11T14:08:24;2.33;;;1.77;;
66118;SDS011;52912;48.564;9.302;2022-08-11T14:10:53;5.07;;;1.88;;
66118;SDS011;52912;48.564;9.302;2022-08-11T14:13:23;3.95;;;1.88;;
66118;SDS011;52912;48.564;9.302;2022-08-11T14:15:50;3.13;;;1.90;;
66118;SDS011;52912;48.564;9.302;2022-08-11T14:18:17;2.80;;;1.67;;
66118;SDS011;52912;48.564;9.302;2022-08-11T14:20:45;2.05;;;1.60;;
66118;SDS011;52912;48.564;9.302;2022-08-11T14:23:15;4.32;;;2.00;;
66118;SDS011;52912;48.564;9.302;2022-08-11T14:25:41;2.67;;;1.70;;
66118;SDS011;52912;48.564;9.302;2022-08-11T14:28:09;6.35;;;1.70;;
66118;SDS011;52912;48.564;9.302;2022-08-11T14:30:35;4.50;;;1.75;;
66118;SDS011;52912;48.564;9.302;2022-08-11T14:33:00;3.47;;;1.60;;
66118;SDS011;52912;48.564;9.302;2022-08-11T14:35:27;4.38;;;1.63;;
66118;SDS011;52912;48.564;9.302;2022-08-11T14:37:52;4.82;;;1.70;;
66118;SDS011;52912;48.564;9.302;2022-08-11T14:40:21;2.58;;;1.80;;
66118;SDS011;52912;48.564;9.302;2022-08-11T14:42:47;3.47;;;2.00;;
66118;SDS011;52912;48.564;9.302;2022-08-11T14:45:15;5.35;;;1.77;;
66118;SDS011;52912;48.564;9.302;2022-08-11T14:50:09;5.22;;;1.63;;
66118;SDS011;52912;48.564;9.302;2022-08-11T14:52:37;5.85;;;1.80;;
66118;SDS011;52912;48.564;9.302;2022-08-11T14:55:07;4.70;;;1.80;;
66118;SDS011;52912;48.564;9.302;2022-08-11T14:57:35;4.13;;;1.77;;
66118;SDS011;52912;48.564;9.302;2022-08-11T15:00:04;3.35;;;2.00;;
66118;SDS011;52912;48.564;9.302;2022-08-11T15:02:33;6.90;;;1.85;;
66118;SDS011;52912;48.564;9.302;2022-08-11T15:05:02;7.32;;;1.88;;
66118;SDS011;52912;48.564;9.302;2022-08-11T15:09:56;2.35;;;1.73;;
66118;SDS011;52912;48.564;9.302;2022-08-11T15:12:22;6.32;;;1.70;;
66118;SDS011;52912;48.564;9.302;2022-08-11T15:14:48;3.88;;;2.00;;
66118;SDS011;52912;48.564;9.302;2022-08-11T15:17:14;4.47;;;1.98;;
66118;SDS011;52912;48.564;9.302;2022-08-11T15:19:43;3.00;;;1.85;;
66118;SDS011;52912;48.564;9.302;2022-08-11T15:22:09;7.65;;;2.22;;
66118;SDS011;52912;48.564;9.302;2022-08-11T15:24:34;7.35;;;1.90;;
66118;SDS011;52912;48.564;9.302;2022-08-11T15:27:01;4.43;;;1.67;;
66118;SDS011;52912;48.564;9.302;2022-08-11T15:29:29;3.67;;;1.70;;
66118;SDS011;52912;48.564;9.302;2022-08-11T15:31:58;2.92;;;1.88;;
66118;SDS011;52912;48.564;9.302;2022-08-11T15:34:24;2.67;;;1.83;;
66118;SDS011;52912;48.564;9.302;2022-08-11T15:36:56;4.53;;;1.70;;
66118;SDS011;52912;48.564;9.302;2022-08-11T15:39:26;2.08;;;1.73;;
66118;SDS011;52912;48.564;9.302;2022-08-11T15:41:56;3.47;;;1.83;;
66118;SDS011;52912;48.564;9.302;2022-08-11T15:44:26;3.17;;;1.67;;
66118;SDS011;52912;48.564;9.302;2022-08-11T15:46:55;3.78;;;1.60;;
66118;SDS011;52912;48.564;9.302;2022-08-11T15:49:27;3.38;;;1.70;;
66118;SDS011;52912;48.564;9.302;2022-08-11T15:51:56;2.58;;;1.80;;
66118;SDS011;52912;48.564;9.302;2022-08-11T15:54:28;2.28;;;1.75;;
66118;SDS011;52912;48.564;9.302;2022-08-11T15:56:55;2.15;;;1.80;;
66118;SDS011;52912;48.564;9.302;2022-08-11T15:59:23;4.20;;;1.70;;
66118;SDS011;52912;48.564;9.302;2022-08-11T16:01:50;5.32;;;1.70;;
66118;SDS011;52912;48.564;9.302;2022-08-11T16:04:18;2.73;;;1.50;;
66118;SDS011;52912;48.564;9.302;2022-08-11T16:06:53;3.75;;;1.70;;
66118;SDS011;52912;48.564;9.302;2022-08-11T16:09:26;4.38;;;1.80;;
66118;SDS011;52912;48.564;9.302;2022-08-11T16:11:56;2.00;;;1.80;;
66118;SDS011;52912;48.564;9.302;2022-08-11T16:14:25;3.63;;;1.63;;